sensor_id;sensor_type;location;lat;lon;timestamp;temperature;humidity
69990;DHT22;57331;52.054;5.294;2022-08-05T00:02:26;21.00;39.20
69990;DHT22;57331;52.054;5.294;2022-08-05T00:04:55;23.00;40.30
69990;DHT22;57331;52.054;5.294;2022-08-05T00:10:09;20.70;39.20
69990;DHT22;57331;52.054;5.294;2022-08-05T00:18:09;20.60;39.40
69990;DHT22;57331;52.054;5.294;2022-08-05T00:20:49;22.70;40.80
69990;DHT22;57331;52.054;5.294;2022-08-05T00:28:31;20.80;40.00
69990;DHT22;57331;52.054;5.294;2022-08-05T00:30:59;20.50;40.00
69990;DHT22;57331;52.054;5.294;2022-08-05T00:33:30;21.00;40.50
69990;DHT22;57331;52.054;5.294;2022-08-05T00:36:17;20.40;38.70
69990;DHT22;57331;52.054;5.294;2022-08-05T00:44:22;21.60;30.90
69990;DHT22;57331;52.054;5.294;2022-08-05T00:46:57;21.00;31.50
69990;DHT22;57331;52.054;5.294;2022-08-05T00:52:10;23.10;42.40
69990;DHT22;57331;52.054;5.294;2022-08-05T00:59:36;22.10;42.20
69990;DHT22;57331;52.054;5.294;2022-08-05T01:04:42;23.00;43.30
69990;DHT22;57331;52.054;5.294;2022-08-05T01:07:09;20.70;41.60
69990;DHT22;57331;52.054;5.294;2022-08-05T01:09:39;21.40;31.80
69990;DHT22;57331;52.054;5.294;2022-08-05T01:12:09;20.40;41.90
69990;DHT22;57331;52.054;5.294;2022-08-05T01:30:45;21.20;42.90
69990;DHT22;57331;52.054;5.294;2022-08-05T01:33:23;22.60;43.70
69990;DHT22;57331;52.054;5.294;2022-08-05T01:35:52;22.50;43.70
69990;DHT22;57331;52.054;5.294;2022-08-05T01:38:24;22.70;43.90
69990;DHT22;57331;52.054;5.294;2022-08-05T01:40:59;21.20;32.40
69990;DHT22;57331;52.054;5.294;2022-08-05T01:43:28;22.50;43.60
69990;DHT22;57331;52.054;5.294;2022-08-05T01:48:34;22.70;43.60
69990;DHT22;57331;52.054;5.294;2022-08-05T01:51:03;21.30;32.30
69990;DHT22;57331;52.054;5.294;2022-08-05T01:53:39;22.40;37.30
69990;DHT22;57331;52.054;5.294;2022-08-05T01:56:31;21.00;42.60
69990;DHT22;57331;52.054;5.294;2022-08-05T01:59:21;21.20;32.10
69990;DHT22;57331;52.054;5.294;2022-08-05T02:01:50;19.90;42.10
69990;DHT22;57331;52.054;5.294;2022-08-05T02:04:21;20.40;42.30
69990;DHT22;57331;52.054;5.294;2022-08-05T02:06:51;22.60;43.80
69990;DHT22;57331;52.054;5.294;2022-08-05T02:09:18;20.30;42.40
69990;DHT22;57331;52.054;5.294;2022-08-05T02:12:05;20.00;42.20
69990;DHT22;57331;52.054;5.294;2022-08-05T02:15:10;19.80;38.50
69990;DHT22;57331;52.054;5.294;2022-08-05T02:18:06;19.80;42.40
69990;DHT22;57331;52.054;5.294;2022-08-05T02:21:00;21.90;43.70
69990;DHT22;57331;52.054;5.294;2022-08-05T02:23:33;20.60;43.00
69990;DHT22;57331;52.054;5.294;2022-08-05T02:26:07;20.80;32.50
69990;DHT22;57331;52.054;5.294;2022-08-05T02:28:40;22.10;44.20
69990;DHT22;57331;52.054;5.294;2022-08-05T02:31:16;21.30;43.60
69990;DHT22;57331;52.054;5.294;2022-08-05T02:33:50;19.80;38.70
69990;DHT22;57331;52.054;5.294;2022-08-05T02:36:24;21.10;43.80
69990;DHT22;57331;52.054;5.294;2022-08-05T02:38:57;20.10;43.30
69990;DHT22;57331;52.054;5.294;2022-08-05T02:41:26;21.20;43.90
69990;DHT22;57331;52.054;5.294;2022-08-05T02:44:06;19.40;43.20
69990;DHT22;57331;52.054;5.294;2022-08-05T02:46:38;20.90;44.10
69990;DHT22;57331;52.054;5.294;2022-08-05T02:49:19;20.70;44.10
69990;DHT22;57331;52.054;5.294;2022-08-05T02:54:31;19.40;43.70
69990;DHT22;57331;52.054;5.294;2022-08-05T02:57:06;19.20;43.70
69990;DHT22;57331;52.054;5.294;2022-08-05T03:02:21;20.90;44.90
69990;DHT22;57331;52.054;5.294;2022-08-05T03:04:54;20.50;44.70
69990;DHT22;57331;52.054;5.294;2022-08-05T03:07:24;19.50;44.20
69990;DHT22;57331;52.054;5.294;2022-08-05T03:10:14;21.10;45.20
69990;DHT22;57331;52.054;5.294;2022-08-05T03:12:50;19.10;44.10
69990;DHT22;57331;52.054;5.294;2022-08-05T03:15:19;20.60;45.00
69990;DHT22;57331;52.054;5.294;2022-08-05T03:17:46;19.60;44.70
69990;DHT22;57331;52.054;5.294;2022-08-05T03:22:40;19.10;44.40
69990;DHT22;57331;52.054;5.294;2022-08-05T03:25:16;19.20;44.60
69990;DHT22;57331;52.054;5.294;2022-08-05T03:28:04;19.00;44.60
69990;DHT22;57331;52.054;5.294;2022-08-05T03:30:34;21.10;45.70
69990;DHT22;57331;52.054;5.294;2022-08-05T03:33:02;20.30;34.30
69990;DHT22;57331;52.054;5.294;2022-08-05T03:35:31;20.90;45.60
69990;DHT22;57331;52.054;5.294;2022-08-05T03:40:33;20.20;45.40
69990;DHT22;57331;52.054;5.294;2022-08-05T03:43:01;19.10;44.80
69990;DHT22;57331;52.054;5.294;2022-08-05T03:45:48;20.30;45.60
69990;DHT22;57331;52.054;5.294;2022-08-05T03:48:27;20.30;34.50
69990;DHT22;57331;52.054;5.294;2022-08-05T03:54:18;20.70;46.00
69990;DHT22;57331;52.054;5.294;2022-08-05T03:57:09;21.80;46.70
69990;DHT22;57331;52.054;5.294;2022-08-05T04:00:06;19.60;45.30
69990;DHT22;57331;52.054;5.294;2022-08-05T04:02:45;20.40;45.80
69990;DHT22;57331;52.054;5.294;2022-08-05T04:05:34;20.30;45.90
69990;DHT22;57331;52.054;5.294;2022-08-05T04:08:08;20.90;46.30
69990;DHT22;57331;52.054;5.294;2022-08-05T04:10:48;21.30;47.00
69990;DHT22;57331;52.054;5.294;2022-08-05T04:13:15;20.40;46.40
69990;DHT22;57331;52.054;5.294;2022-08-05T04:15:45;20.60;46.70
69990;DHT22;57331;52.054;5.294;2022-08-05T04:18:30;19.60;46.30
69990;DHT22;57331;52.054;5.294;2022-08-05T04:21:00;20.00;35.30
69990;DHT22;57331;52.054;5.294;2022-08-05T04:23:29;20.20;46.80
69990;DHT22;57331;52.054;5.294;2022-08-05T04:28:44;19.70;47.00
69990;DHT22;57331;52.054;5.294;2022-08-05T04:31:18;19.00;46.50
69990;DHT22;57331;52.054;5.294;2022-08-05T04:33:45;19.70;47.00
69990;DHT22;57331;52.054;5.294;2022-08-05T04:36:32;18.90;46.70
69990;DHT22;57331;52.054;5.294;2022-08-05T04:39:18;20.10;47.90
69990;DHT22;57331;52.054;5.294;2022-08-05T04:41:47;19.90;36.10
69990;DHT22;57331;52.054;5.294;2022-08-05T04:46:54;19.30;47.30
69990;DHT22;57331;52.054;5.294;2022-08-05T04:52:05;19.20;47.30
69990;DHT22;57331;52.054;5.294;2022-08-05T04:59:27;19.90;47.70
69990;DHT22;57331;52.054;5.294;2022-08-05T05:02:06;20.30;47.80
69990;DHT22;57331;52.054;5.294;2022-08-05T05:04:53;19.30;47.10
69990;DHT22;57331;52.054;5.294;2022-08-05T05:09:58;20.50;47.80
69990;DHT22;57331;52.054;5.294;2022-08-05T05:12:28;19.10;47.20
69990;DHT22;57331;52.054;5.294;2022-08-05T05:14:55;20.90;48.20
69990;DHT22;57331;52.054;5.294;2022-08-05T05:17:22;21.20;48.40
69990;DHT22;57331;52.054;5.294;2022-08-05T05:20:11;19.00;47.10
69990;DHT22;57331;52.054;5.294;2022-08-05T05:22:38;19.40;47.30
69990;DHT22;57331;52.054;5.294;2022-08-05T05:25:07;19.90;36.20
69990;DHT22;57331;52.054;5.294;2022-08-05T05:27:43;21.20;48.30
69990;DHT22;57331;52.054;5.294;2022-08-05T05:30:22;20.90;46.30
69990;DHT22;57331;52.054;5.294;2022-08-05T05:32:58;20.00;36.00
69990;DHT22;57331;52.054;5.294;2022-08-05T05:35:28;19.10;47.10
69990;DHT22;57331;52.054;5.294;2022-08-05T05:38:04;19.20;46.80
69990;DHT22;57331;52.054;5.294;2022-08-05T05:40:40;20.30;47.70
69990;DHT22;57331;52.054;5.294;2022-08-05T05:43:15;19.10;47.00
69990;DHT22;57331;52.054;5.294;2022-08-05T05:48:31;20.70;47.70
69990;DHT22;57331;52.054;5.294;2022-08-05T05:51:00;20.60;47.70
69990;DHT22;57331;52.054;5.294;2022-08-05T05:53:40;20.20;47.30
69990;DHT22;57331;52.054;5.294;2022-08-05T05:56:26;21.60;47.90
69990;DHT22;57331;52.054;5.294;2022-08-05T05:59:04;21.70;47.90
69990;DHT22;57331;52.054;5.294;2022-08-05T06:01:34;21.60;47.80
69990;DHT22;57331;52.054;5.294;2022-08-05T06:04:05;20.40;35.30
69990;DHT22;57331;52.054;5.294;2022-08-05T06:06:33;19.10;46.00
69990;DHT22;57331;52.054;5.294;2022-08-05T06:09:02;21.30;46.90
69990;DHT22;57331;52.054;5.294;2022-08-05T06:11:30;19.60;45.50
69990;DHT22;57331;52.054;5.294;2022-08-05T06:13:58;22.30;46.70
69990;DHT22;57331;52.054;5.294;2022-08-05T06:16:26;20.60;45.30
69990;DHT22;57331;52.054;5.294;2022-08-05T06:21:33;22.40;43.70
69990;DHT22;57331;52.054;5.294;2022-08-05T06:24:07;22.00;45.00
69990;DHT22;57331;52.054;5.294;2022-08-05T06:26:41;19.80;43.50
69990;DHT22;57331;52.054;5.294;2022-08-05T06:29:21;21.50;38.80
69990;DHT22;57331;52.054;5.294;2022-08-05T06:32:08;20.90;43.40
69990;DHT22;57331;52.054;5.294;2022-08-05T06:34:53;21.30;43.50
69990;DHT22;57331;52.054;5.294;2022-08-05T06:37:23;20.00;42.70
69990;DHT22;57331;52.054;5.294;2022-08-05T06:40:11;20.60;43.10
69990;DHT22;57331;52.054;5.294;2022-08-05T06:42:39;21.20;43.00
69990;DHT22;57331;52.054;5.294;2022-08-05T06:45:07;21.20;32.00
69990;DHT22;57331;52.054;5.294;2022-08-05T06:47:35;20.50;42.80
69990;DHT22;57331;52.054;5.294;2022-08-05T06:52:50;22.60;43.90
69990;DHT22;57331;52.054;5.294;2022-08-05T06:55:37;22.10;43.10
69990;DHT22;57331;52.054;5.294;2022-08-05T07:00:57;21.10;31.60
69990;DHT22;57331;52.054;5.294;2022-08-05T07:03:26;20.70;41.10
69990;DHT22;57331;52.054;5.294;2022-08-05T07:08:25;19.90;42.50
69990;DHT22;57331;52.054;5.294;2022-08-05T07:10:54;21.60;43.40
69990;DHT22;57331;52.054;5.294;2022-08-05T07:13:22;19.60;42.60
69990;DHT22;57331;52.054;5.294;2022-08-05T07:16:26;19.70;42.40
69990;DHT22;57331;52.054;5.294;2022-08-05T07:22:19;21.00;42.70
69990;DHT22;57331;52.054;5.294;2022-08-05T07:24:57;19.70;41.90
69990;DHT22;57331;52.054;5.294;2022-08-05T07:30:11;22.70;42.70
69990;DHT22;57331;52.054;5.294;2022-08-05T07:35:23;21.00;40.80
69990;DHT22;57331;52.054;5.294;2022-08-05T07:40:57;23.20;41.40
69990;DHT22;57331;52.054;5.294;2022-08-05T07:43:42;20.50;39.10
69990;DHT22;57331;52.054;5.294;2022-08-05T07:46:09;23.30;39.50
69990;DHT22;57331;52.054;5.294;2022-08-05T07:48:55;23.00;38.50
69990;DHT22;57331;52.054;5.294;2022-08-05T07:51:34;21.00;36.10
69990;DHT22;57331;52.054;5.294;2022-08-05T07:54:07;21.30;35.50
69990;DHT22;57331;52.054;5.294;2022-08-05T07:56:37;23.10;36.20
69990;DHT22;57331;52.054;5.294;2022-08-05T07:59:24;21.50;34.60
69990;DHT22;57331;52.054;5.294;2022-08-05T08:02:10;21.70;33.70
69990;DHT22;57331;52.054;5.294;2022-08-05T08:04:44;24.50;34.50
69990;DHT22;57331;52.054;5.294;2022-08-05T08:07:12;23.10;25.60
69990;DHT22;57331;52.054;5.294;2022-08-05T08:09:39;21.60;30.00
69990;DHT22;57331;52.054;5.294;2022-08-05T08:12:06;21.80;28.30
69990;DHT22;57331;52.054;5.294;2022-08-05T08:14:53;23.60;29.20
69990;DHT22;57331;52.054;5.294;2022-08-05T08:17:20;24.40;29.60
69990;DHT22;57331;52.054;5.294;2022-08-05T08:19:49;22.40;28.50
69990;DHT22;57331;52.054;5.294;2022-08-05T08:22:36;24.40;28.40
69990;DHT22;57331;52.054;5.294;2022-08-05T08:25:03;22.30;24.90
69990;DHT22;57331;52.054;5.294;2022-08-05T08:27:43;24.70;26.90
69990;DHT22;57331;52.054;5.294;2022-08-05T08:30:14;24.40;24.60
69990;DHT22;57331;52.054;5.294;2022-08-05T08:33:07;24.60;26.40
69990;DHT22;57331;52.054;5.294;2022-08-05T08:35:39;23.70;18.60
69990;DHT22;57331;52.054;5.294;2022-08-05T08:38:19;23.80;18.50
69990;DHT22;57331;52.054;5.294;2022-08-05T08:41:04;24.80;24.90
69990;DHT22;57331;52.054;5.294;2022-08-05T08:43:32;24.40;18.00
69990;DHT22;57331;52.054;5.294;2022-08-05T08:46:20;25.80;24.10
69990;DHT22;57331;52.054;5.294;2022-08-05T08:48:49;26.90;18.40
69990;DHT22;57331;52.054;5.294;2022-08-05T08:51:36;24.20;24.40
69990;DHT22;57331;52.054;5.294;2022-08-05T08:54:25;25.60;17.80
69990;DHT22;57331;52.054;5.294;2022-08-05T08:56:53;25.10;24.60
69990;DHT22;57331;52.054;5.294;2022-08-05T08:59:22;25.30;22.40
69990;DHT22;57331;52.054;5.294;2022-08-05T09:02:00;25.30;16.10
69990;DHT22;57331;52.054;5.294;2022-08-05T09:04:35;25.30;16.10
69990;DHT22;57331;52.054;5.294;2022-08-05T09:07:23;25.80;23.00
69990;DHT22;57331;52.054;5.294;2022-08-05T09:09:54;25.00;22.20
69990;DHT22;57331;52.054;5.294;2022-08-05T09:12:21;25.20;15.40
69990;DHT22;57331;52.054;5.294;2022-08-05T09:14:53;26.40;20.70
69990;DHT22;57331;52.054;5.294;2022-08-05T09:17:30;25.70;21.60
69990;DHT22;57331;52.054;5.294;2022-08-05T09:20:09;26.00;22.80
69990;DHT22;57331;52.054;5.294;2022-08-05T09:23:02;24.70;23.00
69990;DHT22;57331;52.054;5.294;2022-08-05T09:25:33;23.80;21.60
69990;DHT22;57331;52.054;5.294;2022-08-05T09:28:22;24.00;21.70
69990;DHT22;57331;52.054;5.294;2022-08-05T09:31:07;26.70;21.30
69990;DHT22;57331;52.054;5.294;2022-08-05T09:34:03;25.90;13.90
69990;DHT22;57331;52.054;5.294;2022-08-05T09:36:41;26.20;13.20
69990;DHT22;57331;52.054;5.294;2022-08-05T09:39:24;25.50;19.90
69990;DHT22;57331;52.054;5.294;2022-08-05T09:42:07;25.70;19.00
69990;DHT22;57331;52.054;5.294;2022-08-05T09:44:51;26.60;19.70
69990;DHT22;57331;52.054;5.294;2022-08-05T09:47:24;25.80;11.80
69990;DHT22;57331;52.054;5.294;2022-08-05T09:49:56;25.80;20.90
69990;DHT22;57331;52.054;5.294;2022-08-05T09:52:32;24.20;19.40
69990;DHT22;57331;52.054;5.294;2022-08-05T09:55:11;25.60;21.00
69990;DHT22;57331;52.054;5.294;2022-08-05T09:57:58;24.00;19.20
69990;DHT22;57331;52.054;5.294;2022-08-05T10:00:26;25.40;20.60
69990;DHT22;57331;52.054;5.294;2022-08-05T10:02:56;24.90;20.70
69990;DHT22;57331;52.054;5.294;2022-08-05T10:05:27;24.40;12.80
69990;DHT22;57331;52.054;5.294;2022-08-05T10:07:56;25.10;13.50
69990;DHT22;57331;52.054;5.294;2022-08-05T10:13:11;25.00;21.70
69990;DHT22;57331;52.054;5.294;2022-08-05T10:15:57;24.20;21.60
69990;DHT22;57331;52.054;5.294;2022-08-05T10:18:27;23.90;13.40
69990;DHT22;57331;52.054;5.294;2022-08-05T10:21:01;24.80;21.00
69990;DHT22;57331;52.054;5.294;2022-08-05T10:23:36;25.40;21.80
69990;DHT22;57331;52.054;5.294;2022-08-05T10:26:23;25.10;21.00
69990;DHT22;57331;52.054;5.294;2022-08-05T10:28:58;25.00;13.70
69990;DHT22;57331;52.054;5.294;2022-08-05T10:31:25;24.60;19.70
69990;DHT22;57331;52.054;5.294;2022-08-05T10:34:12;25.80;13.70
69990;DHT22;57331;52.054;5.294;2022-08-05T10:36:43;24.10;19.40
69990;DHT22;57331;52.054;5.294;2022-08-05T10:39:26;26.50;21.90
69990;DHT22;57331;52.054;5.294;2022-08-05T10:46:19;23.60;19.40
69990;DHT22;57331;52.054;5.294;2022-08-05T10:48:55;24.60;20.40
69990;DHT22;57331;52.054;5.294;2022-08-05T10:51:49;24.60;13.00
69990;DHT22;57331;52.054;5.294;2022-08-05T10:54:48;24.80;20.40
69990;DHT22;57331;52.054;5.294;2022-08-05T10:57:27;23.60;17.50
69990;DHT22;57331;52.054;5.294;2022-08-05T11:06:07;24.60;18.30
69990;DHT22;57331;52.054;5.294;2022-08-05T11:09:11;25.40;18.20
69990;DHT22;57331;52.054;5.294;2022-08-05T11:11:44;25.40;16.90
69990;DHT22;57331;52.054;5.294;2022-08-05T11:14:27;24.90;9.60
69990;DHT22;57331;52.054;5.294;2022-08-05T11:17:24;25.00;16.00
69990;DHT22;57331;52.054;5.294;2022-08-05T11:20:33;25.90;9.60
69990;DHT22;57331;52.054;5.294;2022-08-05T11:23:34;26.50;8.00
69990;DHT22;57331;52.054;5.294;2022-08-05T11:26:22;23.00;11.40
69990;DHT22;57331;52.054;5.294;2022-08-05T11:28:58;26.20;6.50
69990;DHT22;57331;52.054;5.294;2022-08-05T11:31:38;26.80;15.00
69990;DHT22;57331;52.054;5.294;2022-08-05T11:34:40;25.80;7.60
69990;DHT22;57331;52.054;5.294;2022-08-05T11:41:04;24.80;16.50
69990;DHT22;57331;52.054;5.294;2022-08-05T11:43:59;23.40;14.80
69990;DHT22;57331;52.054;5.294;2022-08-05T11:49:26;24.40;8.70
69990;DHT22;57331;52.054;5.294;2022-08-05T11:51:53;23.90;16.00
69990;DHT22;57331;52.054;5.294;2022-08-05T11:54:28;24.50;9.10
69990;DHT22;57331;52.054;5.294;2022-08-05T11:57:01;24.60;9.10
69990;DHT22;57331;52.054;5.294;2022-08-05T11:59:48;24.20;15.90
69990;DHT22;57331;52.054;5.294;2022-08-05T12:02:16;25.60;9.70
69990;DHT22;57331;52.054;5.294;2022-08-05T12:05:01;26.20;13.90
69990;DHT22;57331;52.054;5.294;2022-08-05T12:07:35;26.90;6.30
69990;DHT22;57331;52.054;5.294;2022-08-05T12:10:25;26.70;13.70
69990;DHT22;57331;52.054;5.294;2022-08-05T12:13:15;29.30;14.30
69990;DHT22;57331;52.054;5.294;2022-08-05T12:16:04;28.10;6.90
69990;DHT22;57331;52.054;5.294;2022-08-05T12:18:40;28.60;5.00
69990;DHT22;57331;52.054;5.294;2022-08-05T12:21:24;28.60;5.20
69990;DHT22;57331;52.054;5.294;2022-08-05T12:24:01;28.50;5.00
69990;DHT22;57331;52.054;5.294;2022-08-05T12:26:50;28.20;5.20
69990;DHT22;57331;52.054;5.294;2022-08-05T12:29:26;28.40;4.70
69990;DHT22;57331;52.054;5.294;2022-08-05T12:32:04;28.20;4.60
69990;DHT22;57331;52.054;5.294;2022-08-05T12:34:36;27.80;5.60
69990;DHT22;57331;52.054;5.294;2022-08-05T12:37:08;28.10;6.20
69990;DHT22;57331;52.054;5.294;2022-08-05T12:39:56;28.10;6.10
69990;DHT22;57331;52.054;5.294;2022-08-05T12:42:36;27.40;12.00
69990;DHT22;57331;52.054;5.294;2022-08-05T12:45:06;28.30;6.30
69990;DHT22;57331;52.054;5.294;2022-08-05T12:47:36;28.50;11.90
69990;DHT22;57331;52.054;5.294;2022-08-05T12:50:16;27.90;5.10
69990;DHT22;57331;52.054;5.294;2022-08-05T12:52:57;27.80;6.70
69990;DHT22;57331;52.054;5.294;2022-08-05T12:55:27;27.50;7.50
69990;DHT22;57331;52.054;5.294;2022-08-05T12:57:58;27.80;7.60
69990;DHT22;57331;52.054;5.294;2022-08-05T13:00:45;28.20;7.80
69990;DHT22;57331;52.054;5.294;2022-08-05T13:03:36;28.10;13.80
69990;DHT22;57331;52.054;5.294;2022-08-05T13:06:15;27.80;13.00
69990;DHT22;57331;52.054;5.294;2022-08-05T13:08:45;29.10;13.80
69990;DHT22;57331;52.054;5.294;2022-08-05T13:11:19;27.70;13.20
69990;DHT22;57331;52.054;5.294;2022-08-05T13:14:20;28.40;6.60
69990;DHT22;57331;52.054;5.294;2022-08-05T13:17:28;28.60;6.20
69990;DHT22;57331;52.054;5.294;2022-08-05T13:20:08;28.60;5.10
69990;DHT22;57331;52.054;5.294;2022-08-05T13:22:42;28.60;6.10
69990;DHT22;57331;52.054;5.294;2022-08-05T13:25:11;28.90;7.60
69990;DHT22;57331;52.054;5.294;2022-08-05T13:27:51;29.50;6.90
69990;DHT22;57331;52.054;5.294;2022-08-05T13:30:20;29.50;4.90
69990;DHT22;57331;52.054;5.294;2022-08-05T13:33:02;28.70;13.30
69990;DHT22;57331;52.054;5.294;2022-08-05T13:35:29;28.60;14.80
69990;DHT22;57331;52.054;5.294;2022-08-05T13:38:17;28.00;7.40
69990;DHT22;57331;52.054;5.294;2022-08-05T13:43:25;28.00;6.60
69990;DHT22;57331;52.054;5.294;2022-08-05T13:46:13;28.10;5.80
69990;DHT22;57331;52.054;5.294;2022-08-05T13:48:42;29.10;12.30
69990;DHT22;57331;52.054;5.294;2022-08-05T13:51:27;28.80;6.10
69990;DHT22;57331;52.054;5.294;2022-08-05T13:54:02;29.20;4.90
69990;DHT22;57331;52.054;5.294;2022-08-05T13:56:39;29.20;4.50
69990;DHT22;57331;52.054;5.294;2022-08-05T13:59:16;28.10;9.40
69990;DHT22;57331;52.054;5.294;2022-08-05T14:01:46;29.10;3.60
69990;DHT22;57331;52.054;5.294;2022-08-05T14:04:29;28.90;3.80
69990;DHT22;57331;52.054;5.294;2022-08-05T14:07:28;28.20;9.10
69990;DHT22;57331;52.054;5.294;2022-08-05T14:10:19;29.60;3.70
69990;DHT22;57331;52.054;5.294;2022-08-05T14:12:55;29.10;9.20
69990;DHT22;57331;52.054;5.294;2022-08-05T14:15:23;30.10;3.70
69990;DHT22;57331;52.054;5.294;2022-08-05T14:18:11;30.60;8.40
69990;DHT22;57331;52.054;5.294;2022-08-05T14:20:45;29.50;8.90
69990;DHT22;57331;52.054;5.294;2022-08-05T14:23:14;29.40;8.70
69990;DHT22;57331;52.054;5.294;2022-08-05T14:25:55;30.40;3.20
69990;DHT22;57331;52.054;5.294;2022-08-05T14:28:23;28.90;8.60
69990;DHT22;57331;52.054;5.294;2022-08-05T14:30:53;29.80;10.80
69990;DHT22;57331;52.054;5.294;2022-08-05T14:33:20;27.90;10.50
69990;DHT22;57331;52.054;5.294;2022-08-05T14:35:49;28.10;4.50
69990;DHT22;57331;52.054;5.294;2022-08-05T14:38:18;27.80;5.30
69990;DHT22;57331;52.054;5.294;2022-08-05T14:41:04;27.50;5.40
69990;DHT22;57331;52.054;5.294;2022-08-05T14:43:37;27.10;12.90
69990;DHT22;57331;52.054;5.294;2022-08-05T14:46:25;27.20;13.60
69990;DHT22;57331;52.054;5.294;2022-08-05T14:48:57;27.40;13.70
69990;DHT22;57331;52.054;5.294;2022-08-05T14:51:32;27.50;14.50
69990;DHT22;57331;52.054;5.294;2022-08-05T14:53:59;26.30;6.40
69990;DHT22;57331;52.054;5.294;2022-08-05T14:56:47;28.20;14.00
69990;DHT22;57331;52.054;5.294;2022-08-05T14:59:14;28.60;13.70
69990;DHT22;57331;52.054;5.294;2022-08-05T15:01:41;27.50;6.80
69990;DHT22;57331;52.054;5.294;2022-08-05T15:04:16;28.20;15.30
69990;DHT22;57331;52.054;5.294;2022-08-05T15:06:49;26.80;14.60
69990;DHT22;57331;52.054;5.294;2022-08-05T15:09:19;27.60;14.70
69990;DHT22;57331;52.054;5.294;2022-08-05T15:12:07;26.00;15.50
69990;DHT22;57331;52.054;5.294;2022-08-05T15:14:37;27.60;16.70
69990;DHT22;57331;52.054;5.294;2022-08-05T15:17:16;26.30;9.50
69990;DHT22;57331;52.054;5.294;2022-08-05T15:20:04;24.60;15.40
69990;DHT22;57331;52.054;5.294;2022-08-05T15:22:31;25.20;16.30
69990;DHT22;57331;52.054;5.294;2022-08-05T15:24:59;25.90;17.20
69990;DHT22;57331;52.054;5.294;2022-08-05T15:27:37;24.70;16.60
69990;DHT22;57331;52.054;5.294;2022-08-05T15:30:09;25.50;16.40
69990;DHT22;57331;52.054;5.294;2022-08-05T15:32:40;25.30;16.40
69990;DHT22;57331;52.054;5.294;2022-08-05T15:35:07;27.60;17.60
69990;DHT22;57331;52.054;5.294;2022-08-05T15:37:38;27.10;16.50
69990;DHT22;57331;52.054;5.294;2022-08-05T15:40:25;25.20;15.50
69990;DHT22;57331;52.054;5.294;2022-08-05T15:43:12;28.10;17.00
69990;DHT22;57331;52.054;5.294;2022-08-05T15:45:46;27.40;9.60
69990;DHT22;57331;52.054;5.294;2022-08-05T15:48:27;27.20;15.70
69990;DHT22;57331;52.054;5.294;2022-08-05T15:50:55;27.00;8.70
69990;DHT22;57331;52.054;5.294;2022-08-05T15:53:23;28.50;16.30
69990;DHT22;57331;52.054;5.294;2022-08-05T15:56:06;28.10;15.10
69990;DHT22;57331;52.054;5.294;2022-08-05T15:58:39;25.00;14.90
69990;DHT22;57331;52.054;5.294;2022-08-05T16:01:09;26.80;16.70
69990;DHT22;57331;52.054;5.294;2022-08-05T16:03:46;26.50;16.50
69990;DHT22;57331;52.054;5.294;2022-08-05T16:06:17;28.10;16.90
69990;DHT22;57331;52.054;5.294;2022-08-05T16:08:47;27.90;10.10
69990;DHT22;57331;52.054;5.294;2022-08-05T16:11:16;26.70;16.20
69990;DHT22;57331;52.054;5.294;2022-08-05T16:13:46;26.70;8.80
69990;DHT22;57331;52.054;5.294;2022-08-05T16:16:13;26.70;9.20
69990;DHT22;57331;52.054;5.294;2022-08-05T16:18:50;26.70;9.00
69990;DHT22;57331;52.054;5.294;2022-08-05T16:24:06;24.30;16.20
69990;DHT22;57331;52.054;5.294;2022-08-05T16:26:52;25.30;16.50
69990;DHT22;57331;52.054;5.294;2022-08-05T16:29:23;24.90;9.50
69990;DHT22;57331;52.054;5.294;2022-08-05T16:34:24;24.90;19.40
69990;DHT22;57331;52.054;5.294;2022-08-05T16:36:52;24.60;19.80
69990;DHT22;57331;52.054;5.294;2022-08-05T16:39:20;24.40;20.00
69990;DHT22;57331;52.054;5.294;2022-08-05T16:42:07;23.60;12.60
69990;DHT22;57331;52.054;5.294;2022-08-05T16:44:43;25.70;21.10
69990;DHT22;57331;52.054;5.294;2022-08-05T16:50:06;23.90;20.40
69990;DHT22;57331;52.054;5.294;2022-08-05T16:52:36;25.30;19.80
69990;DHT22;57331;52.054;5.294;2022-08-05T16:55:03;24.10;18.70
69990;DHT22;57331;52.054;5.294;2022-08-05T16:57:30;24.30;19.40
69990;DHT22;57331;52.054;5.294;2022-08-05T17:03:01;25.50;18.40
69990;DHT22;57331;52.054;5.294;2022-08-05T17:07:56;23.70;17.20
69990;DHT22;57331;52.054;5.294;2022-08-05T17:10:23;23.60;15.50
69990;DHT22;57331;52.054;5.294;2022-08-05T17:12:56;25.20;16.50
69990;DHT22;57331;52.054;5.294;2022-08-05T17:15:23;26.00;16.90
69990;DHT22;57331;52.054;5.294;2022-08-05T17:18:10;24.60;16.70
69990;DHT22;57331;52.054;5.294;2022-08-05T17:20:40;24.20;16.80
69990;DHT22;57331;52.054;5.294;2022-08-05T17:23:09;24.30;16.90
69990;DHT22;57331;52.054;5.294;2022-08-05T17:25:56;24.20;16.50
69990;DHT22;57331;52.054;5.294;2022-08-05T17:30:54;23.70;12.10
69990;DHT22;57331;52.054;5.294;2022-08-05T17:33:21;23.50;15.30
69990;DHT22;57331;52.054;5.294;2022-08-05T17:38:35;23.80;16.30
69990;DHT22;57331;52.054;5.294;2022-08-05T17:46:20;24.60;12.80
69990;DHT22;57331;52.054;5.294;2022-08-05T17:48:46;22.50;17.40
69990;DHT22;57331;52.054;5.294;2022-08-05T17:53:48;23.70;18.80
69990;DHT22;57331;52.054;5.294;2022-08-05T17:56:20;22.20;19.00
69990;DHT22;57331;52.054;5.294;2022-08-05T17:58:48;23.90;20.40
69990;DHT22;57331;52.054;5.294;2022-08-05T18:01:17;23.50;20.90
69990;DHT22;57331;52.054;5.294;2022-08-05T18:06:30;21.10;20.70
69990;DHT22;57331;52.054;5.294;2022-08-05T18:11:29;22.30;18.40
69990;DHT22;57331;52.054;5.294;2022-08-05T18:14:03;22.40;12.30
69990;DHT22;57331;52.054;5.294;2022-08-05T18:16:34;22.60;12.30
69990;DHT22;57331;52.054;5.294;2022-08-05T18:19:18;23.90;21.40
69990;DHT22;57331;52.054;5.294;2022-08-05T18:21:49;22.90;21.00
69990;DHT22;57331;52.054;5.294;2022-08-05T18:27:05;22.70;21.30
69990;DHT22;57331;52.054;5.294;2022-08-05T18:32:16;21.20;21.80
69990;DHT22;57331;52.054;5.294;2022-08-05T18:34:43;22.30;23.00
69990;DHT22;57331;52.054;5.294;2022-08-05T18:42:46;20.50;23.90
69990;DHT22;57331;52.054;5.294;2022-08-05T18:45:12;19.80;23.80
69990;DHT22;57331;52.054;5.294;2022-08-05T18:50:09;22.40;25.20
69990;DHT22;57331;52.054;5.294;2022-08-05T18:55:50;22.20;25.60
69990;DHT22;57331;52.054;5.294;2022-08-05T18:58:16;21.40;21.60
69990;DHT22;57331;52.054;5.294;2022-08-05T19:00:52;19.70;23.00
69990;DHT22;57331;52.054;5.294;2022-08-05T19:08:47;20.20;26.20
69990;DHT22;57331;52.054;5.294;2022-08-05T19:21:40;21.10;27.90
69990;DHT22;57331;52.054;5.294;2022-08-05T19:24:06;18.70;27.00
69990;DHT22;57331;52.054;5.294;2022-08-05T19:26:38;20.70;27.90
69990;DHT22;57331;52.054;5.294;2022-08-05T19:29:21;19.40;27.60
69990;DHT22;57331;52.054;5.294;2022-08-05T19:34:16;19.20;27.90
69990;DHT22;57331;52.054;5.294;2022-08-05T19:36:44;19.20;27.90
69990;DHT22;57331;52.054;5.294;2022-08-05T19:41:43;20.30;28.70